Sisimiut

KL  EN  DA
ASIAQ
Weather Now GREENLAND SURVEY
Updated [WGT/WGST] Temperature [°C] Wind [m/s] Air pressure [hPa] Relative humidity [%] Precipitation [mm]
Present Wind chill Speed Max
25.02 08:00-15,0-23,24,4 ⇐5,41015710,3
25.02 07:00-14,3-22,85,0 ⇖7,91015690,6
25.02 06:00-14,7-22,13,8 ⇙4,51015740,4
25.02 05:00-15,1-20,62,3 ⇐2,91015700,7
25.02 04:00-15,4-21,82,9 ⇐4,21015700,0
25.02 03:00-15,2-20,82,4 ⇐3,11014640,0
25.02 02:00-15,7-21,12,2 ⇙3,11014630,1
25.02 01:00-14,9-18,91,6 ⇐2,51014630,5
25.02 00:00-15,6-22,53,2 ⇐4,41014610,0
24.02 23:00-15,7-21,22,3 ⇐3,21013620,0
24.02 22:00-15,40,01,1 ⇙2,51013630,0
24.02 21:00-14,9-20,02,1 ⇙2,91013600,3
24.02 20:00-15,10,01,3 ⇙1,81012640,6
24.02 19:00-15,80,01,1 ⇐1,81011670,8
24.02 18:00-15,30,01,0 ⇐1,81011680,0
24.02 17:00-14,90,00,8 ⇐1,91010680,2
24.02 16:00-14,6-22,13,9 ⇓5,21009660,0
24.02 15:00-14,5-22,64,5 ⇘6,11008650,1
24.02 14:00-13,6-20,73,7 ⇓5,01007640,7
24.02 13:00-14,1-21,33,7 ⇓5,31007620,0
24.02 12:00-13,9-21,44,0 ⇓5,81006620,0
24.02 11:00-13,9-21,74,3 ⇓6,31005630,1
24.02 10:00-13,6-21,04,0 ⇓5,61004600,0
24.02 09:00-14,1-21,54,0 ⇓6,81004600,0
24.02 08:00-14,3-22,24,3 ⇓6,31003620,1
Position: (66.95138888888,-53.729444444)

[Back]